createdAt,value
2018-01-27T00:01:59.378Z,99995.34
2018-01-27T00:04:27.258Z,99998.62
2018-01-27T00:06:55.116Z,99996.23
2018-01-27T00:09:23.011Z,99999.45
2018-01-27T00:11:50.921Z,100001.92
2018-01-27T00:14:18.816Z,99999.91
2018-01-27T00:16:46.642Z,99992.22
2018-01-27T00:19:14.738Z,100004.39
2018-01-27T00:21:42.575Z,100003.50
2018-01-27T00:24:10.430Z,100005.95
2018-01-27T00:26:38.324Z,100001.08
2018-01-27T00:29:06.177Z,100007.98
2018-01-27T00:31:34.015Z,100006.28
2018-01-27T00:34:01.919Z,100010.52
2018-01-27T00:36:29.770Z,100012.19
2018-01-27T00:38:57.867Z,100010.80
2018-01-27T00:41:26.762Z,100007.38
2018-01-27T00:43:54.598Z,100010.08
2018-01-27T00:46:22.442Z,100016.39
2018-01-27T00:48:50.337Z,100014.72
2018-01-27T00:51:18.171Z,100015.22
2018-01-27T00:53:46.903Z,100014.30
2018-01-27T00:56:14.783Z,100016.59
2018-01-27T00:58:42.620Z,100019.65
2018-01-27T01:01:10.531Z,100013.84
2018-01-27T01:03:39.100Z,100011.05
2018-01-27T01:06:06.978Z,100011.88
2018-01-27T01:08:34.831Z,100008.91
2018-01-27T01:11:02.739Z,100006.20
2018-01-27T01:13:30.584Z,100006.20
2018-01-27T01:15:58.422Z,100001.75
2018-01-27T01:18:26.322Z,100005.80
2018-01-27T01:20:54.213Z,100006.61
2018-01-27T01:23:22.679Z,99999.55
2018-01-27T01:25:50.565Z,99999.55
2018-01-27T01:28:19.372Z,99998.23
2018-01-27T01:30:48.188Z,99993.22
2018-01-27T01:33:16.086Z,99998.17
2018-01-27T01:35:43.938Z,99995.13
2018-01-27T01:38:11.818Z,99992.66
2018-01-27T01:40:40.288Z,99993.58
2018-01-27T01:43:13.636Z,99992.73
2018-01-27T01:45:41.539Z,99986.64
2018-01-27T01:48:09.413Z,99980.85
2018-01-27T01:50:37.293Z,99980.85
2018-01-27T01:53:05.201Z,99987.10
2018-01-27T01:55:33.043Z,99981.41
2018-01-27T01:58:01.896Z,99985.17
2018-01-27T02:00:29.786Z,99976.67
2018-01-27T02:02:57.619Z,99970.48
2018-01-27T02:05:25.481Z,99977.91
2018-01-27T02:07:53.370Z,99982.49
2018-01-27T02:10:21.232Z,99981.91
2018-01-27T02:12:49.082Z,99979.84
2018-01-27T02:15:17.216Z,99971.47
2018-01-27T02:17:45.054Z,99969.31
2018-01-27T02:20:12.974Z,99973.25
2018-01-27T02:22:40.938Z,99975.41
2018-01-27T02:25:08.787Z,99974.40
2018-01-27T02:27:36.642Z,99972.62
2018-01-27T02:30:04.600Z,99973.02
2018-01-27T02:32:32.479Z,99976.67
2018-01-27T02:35:00.354Z,99989.30
2018-01-27T02:37:29.254Z,99991.00
2018-01-27T02:39:57.123Z,99985.42
2018-01-27T02:42:25.474Z,99988.97
2018-01-27T02:44:53.385Z,99990.78
2018-01-27T02:47:21.253Z,99988.59
2018-01-27T02:49:49.100Z,99998.61
2018-01-27T02:52:17.240Z,99995.02
2018-01-27T02:54:45.096Z,100000.17
2018-01-27T02:57:12.937Z,99989.78
2018-01-27T02:59:40.831Z,99995.25
2018-01-27T03:02:08.686Z,100001.95
2018-01-27T03:04:37.386Z,100001.57
2018-01-27T03:07:05.334Z,99997.73
2018-01-27T03:09:33.206Z,100000.80
2018-01-27T03:12:01.080Z,99998.12
2018-01-27T03:14:28.970Z,100007.23
2018-01-27T03:16:56.829Z,100011.81
2018-01-27T03:19:24.666Z,100011.09
2018-01-27T03:21:52.585Z,100014.27
2018-01-27T03:24:20.437Z,100013.94
2018-01-27T03:26:48.276Z,100019.06
2018-01-27T03:29:16.166Z,100018.03
2018-01-27T03:31:44.347Z,100024.95
2018-01-27T03:34:12.190Z,100022.09
2018-01-27T03:36:40.092Z,100023.20
2018-01-27T03:39:07.938Z,100023.26
2018-01-27T03:41:35.796Z,100027.44
2018-01-27T03:44:04.086Z,100028.05
2018-01-27T03:46:31.936Z,100029.14
2018-01-27T03:48:59.783Z,100034.84
2018-01-27T03:51:27.686Z,100037.27
2018-01-27T03:53:55.538Z,100035.52
2018-01-27T03:56:23.470Z,100036.48
2018-01-27T03:58:51.379Z,100035.59
2018-01-27T04:01:19.245Z,100033.76
2018-01-27T04:03:47.110Z,100031.65
2018-01-27T04:06:15.018Z,100033.63
2018-01-27T04:08:42.866Z,100030.63
2018-01-27T04:11:11.682Z,100041.34
2018-01-27T04:13:39.582Z,100033.35
2018-01-27T04:16:07.427Z,100040.59
2018-01-27T04:18:35.380Z,100037.45
2018-01-27T04:21:03.313Z,100034.06
2018-01-27T04:23:31.197Z,100036.75
2018-01-27T04:25:59.043Z,100035.72
2018-01-27T04:28:26.949Z,100046.45
2018-01-27T04:30:54.824Z,100043.72
2018-01-27T04:33:22.689Z,100037.88
2018-01-27T04:35:50.811Z,100035.33
2018-01-27T04:38:18.696Z,100037.90
2018-01-27T04:40:47.469Z,100042.88
2018-01-27T04:43:15.452Z,100047.05
2018-01-27T04:45:43.418Z,100052.94
2018-01-27T04:48:11.307Z,100050.14
2018-01-27T04:50:39.196Z,100053.14
2018-01-27T04:53:07.043Z,100058.66
2018-01-27T04:55:34.902Z,100060.73
2018-01-27T04:58:02.810Z,100056.19
2018-01-27T05:00:30.686Z,100053.40
2018-01-27T05:02:58.897Z,100058.00
2018-01-27T05:05:26.782Z,100057.21
2018-01-27T05:07:55.348Z,100066.33
2018-01-27T05:10:23.219Z,100067.90
2018-01-27T05:12:51.437Z,100070.79
2018-01-27T05:15:19.282Z,100069.97
2018-01-27T05:17:47.165Z,100070.94
2018-01-27T05:20:15.046Z,100073.63
2018-01-27T05:22:42.896Z,100081.53
2018-01-27T05:25:10.737Z,100083.18
2018-01-27T05:27:38.638Z,100084.63
2018-01-27T05:30:06.487Z,100090.67
2018-01-27T05:32:34.333Z,100090.49
2018-01-27T05:35:02.220Z,100087.44
2018-01-27T05:37:30.087Z,100087.75
2018-01-27T05:42:30.666Z,100100.98
2018-01-27T05:44:58.472Z,100090.98
2018-01-27T05:47:26.354Z,100106.31
2018-01-27T05:49:54.448Z,100107.56
2018-01-27T05:52:22.258Z,100105.42
2018-01-27T05:54:50.077Z,100114.92
2018-01-27T05:57:18.045Z,100112.12
2018-01-27T05:59:45.885Z,100116.73
2018-01-27T06:02:13.698Z,100115.14
2018-01-27T06:04:41.577Z,100110.69
2018-01-27T06:07:09.387Z,100119.56
2018-01-27T06:09:37.199Z,100125.08
2018-01-27T06:12:05.138Z,100124.25
2018-01-27T06:14:32.987Z,100117.36
2018-01-27T06:17:00.810Z,100116.77
2018-01-27T06:19:28.727Z,100129.53
2018-01-27T06:21:56.606Z,100122.39
2018-01-27T06:24:24.470Z,100126.50
2018-01-27T06:26:53.208Z,100128.67
2018-01-27T06:29:21.019Z,100125.35
2018-01-27T06:31:48.862Z,100136.59
2018-01-27T06:40:24.618Z,100146.75
2018-01-27T06:42:52.786Z,100149.26
2018-01-27T06:45:20.680Z,100150.98
2018-01-27T06:47:48.943Z,100136.99
2018-01-27T06:50:16.757Z,100142.43
2018-01-27T06:52:44.617Z,100144.58
2018-01-27T06:55:12.430Z,100147.19
2018-01-27T06:57:40.307Z,100149.23
2018-01-27T07:00:08.185Z,100143.81
2018-01-27T07:02:35.994Z,100143.61
2018-01-27T07:05:03.843Z,100147.77
2018-01-27T07:07:31.713Z,100152.13
2018-01-27T07:09:59.540Z,100144.47
2018-01-27T07:12:27.387Z,100143.85
2018-01-27T07:14:55.251Z,100147.16
2018-01-27T07:17:23.068Z,100148.59
2018-01-27T07:19:50.936Z,100148.55
2018-01-27T07:22:18.778Z,100153.30
2018-01-27T07:24:46.634Z,100148.09
2018-01-27T07:27:14.627Z,100149.36
2018-01-27T07:29:42.755Z,100151.64
2018-01-27T07:32:10.567Z,100148.27
2018-01-27T07:34:39.132Z,100153.58
2018-01-27T07:37:08.217Z,100153.98
2018-01-27T07:39:36.130Z,100146.38
2018-01-27T07:42:03.967Z,100156.59
2018-01-27T07:44:32.087Z,100152.49
2018-01-27T07:47:00.247Z,100156.61
2018-01-27T07:49:28.233Z,100163.22
2018-01-27T07:51:56.110Z,100162.45
2018-01-27T07:54:23.966Z,100168.07
2018-01-27T07:56:51.794Z,100173.19
2018-01-27T07:59:19.654Z,100171.80
2018-01-27T08:01:47.483Z,100173.19
2018-01-27T08:04:15.279Z,100175.34
2018-01-27T08:06:43.137Z,100174.06
2018-01-27T08:09:10.976Z,100177.44
2018-01-27T08:11:38.813Z,100175.02
2018-01-27T08:14:06.714Z,100173.15
2018-01-27T08:16:37.664Z,100171.91
2018-01-27T08:19:05.575Z,100171.91
2018-01-27T08:21:33.791Z,100172.81
2018-01-27T08:24:01.723Z,100180.96
2018-01-27T08:26:29.564Z,100183.80
2018-01-27T08:28:57.478Z,100181.02
2018-01-27T08:31:25.306Z,100178.29
2018-01-27T08:33:53.146Z,100177.26
2018-01-27T08:36:21.054Z,100178.18
2018-01-27T08:38:48.873Z,100178.99
2018-01-27T08:41:17.662Z,100172.48
2018-01-27T08:43:45.549Z,100163.92
2018-01-27T08:46:13.386Z,100175.77
2018-01-27T08:48:41.220Z,100172.87
2018-01-27T08:51:09.243Z,100164.25
2018-01-27T08:53:37.085Z,100165.38
2018-01-27T08:56:04.947Z,100165.02
2018-01-27T08:58:32.843Z,100170.13
2018-01-27T09:01:00.710Z,100166.84
2018-01-27T09:03:28.527Z,100159.44
2018-01-27T09:05:56.446Z,100159.75
2018-01-27T09:08:24.260Z,100159.66
2018-01-27T09:10:52.074Z,100162.14
2018-01-27T09:13:19.981Z,100158.19
2018-01-27T09:15:47.809Z,100148.35
2018-01-27T09:18:15.641Z,100146.06
2018-01-27T09:20:43.527Z,100148.95
2018-01-27T09:23:11.342Z,100142.84
2018-01-27T09:25:39.178Z,100153.30
2018-01-27T09:28:07.076Z,100155.46
2018-01-27T09:30:35.530Z,100148.35
2018-01-27T09:33:03.350Z,100144.22
2018-01-27T09:35:31.246Z,100150.36
2018-01-27T09:37:59.058Z,100150.55
2018-01-27T09:40:26.881Z,100144.09
2018-01-27T09:42:54.746Z,100150.19
2018-01-27T09:45:22.588Z,100147.12
2018-01-27T09:47:50.378Z,100142.63
2018-01-27T09:50:18.273Z,100146.82
2018-01-27T09:52:46.324Z,100148.63
2018-01-27T09:55:14.237Z,100147.92
2018-01-27T09:57:42.127Z,100138.70
2018-01-27T10:00:09.986Z,100134.99
2018-01-27T10:02:37.794Z,100132.96
2018-01-27T10:05:05.886Z,100128.08
2018-01-27T10:07:33.734Z,100125.53
2018-01-27T10:10:01.578Z,100132.04
2018-01-27T10:12:29.477Z,100134.82
2018-01-27T10:14:57.282Z,100129.75
2018-01-27T10:17:25.146Z,100125.83
2018-01-27T10:19:53.027Z,100128.50
2018-01-27T10:22:20.857Z,100124.64
2018-01-27T10:24:48.716Z,100122.09
2018-01-27T10:27:17.233Z,100121.76
2018-01-27T10:29:45.057Z,100116.06
2018-01-27T10:32:12.902Z,100114.85
2018-01-27T10:34:40.818Z,100109.11
2018-01-27T10:37:08.648Z,100112.36
2018-01-27T10:39:36.470Z,100114.61
2018-01-27T10:42:04.450Z,100108.63
2018-01-27T10:44:32.313Z,100108.63
2018-01-27T10:47:00.173Z,100111.63
2018-01-27T10:49:28.086Z,100112.48
2018-01-27T10:51:56.010Z,100116.88
2018-01-27T10:54:23.914Z,100105.52
2018-01-27T10:56:51.790Z,100110.95
2018-01-27T10:59:19.595Z,100112.72
2018-01-27T11:01:47.415Z,100114.05
2018-01-27T11:04:15.262Z,100113.89
2018-01-27T11:06:43.080Z,100109.54
2018-01-27T11:09:10.906Z,100103.64
2018-01-27T11:11:38.786Z,100102.76
2018-01-27T11:14:06.611Z,100100.44
2018-01-27T11:16:40.357Z,100099.53
2018-01-27T11:19:08.182Z,100097.77
2018-01-27T11:21:35.994Z,100092.66
2018-01-27T11:24:03.935Z,100093.28
2018-01-27T11:26:31.842Z,100088.59
2018-01-27T11:28:59.670Z,100076.77
2018-01-27T11:31:27.545Z,100088.37
2018-01-27T11:33:55.350Z,100091.55
2018-01-27T11:36:23.174Z,100080.13
2018-01-27T11:38:51.049Z,100082.43
2018-01-27T11:41:18.894Z,100080.40
2018-01-27T11:43:46.745Z,100073.36
2018-01-27T11:46:14.945Z,100071.09
2018-01-27T11:48:42.851Z,100068.98
2018-01-27T11:51:10.734Z,100068.55
2018-01-27T11:53:38.670Z,100067.06
2018-01-27T11:56:06.825Z,100063.50
2018-01-27T11:58:34.725Z,100066.52
2018-01-27T12:01:02.632Z,100068.89
2018-01-27T12:03:30.538Z,100069.20
2018-01-27T12:05:58.391Z,100068.25
2018-01-27T12:08:26.307Z,100079.70
2018-01-27T12:10:54.191Z,100062.67
2018-01-27T12:13:22.030Z,100068.95
2018-01-27T12:15:49.962Z,100074.81
2018-01-27T12:18:17.818Z,100073.57
2018-01-27T12:20:45.658Z,100068.23
2018-01-27T12:23:13.822Z,100068.48
2018-01-27T12:25:41.675Z,100066.33
2018-01-27T12:28:09.522Z,100063.89
2018-01-27T12:30:37.427Z,100060.73
2018-01-27T12:33:05.359Z,100059.42
2018-01-27T12:35:33.213Z,100062.66
2018-01-27T12:38:01.106Z,100056.22
2018-01-27T12:40:29.029Z,100062.52
2018-01-27T12:42:56.894Z,100055.78
2018-01-27T12:45:24.811Z,100065.22
2018-01-27T12:47:52.687Z,100059.84
2018-01-27T12:50:20.619Z,100054.31
2018-01-27T12:52:48.587Z,100058.02
2018-01-27T12:55:16.423Z,100062.36
2018-01-27T12:57:45.359Z,100059.67
2018-01-27T13:00:13.278Z,100062.66
2018-01-27T13:02:41.131Z,100057.47
2018-01-27T13:05:08.988Z,100061.02
2018-01-27T13:07:36.895Z,100065.36
2018-01-27T13:10:04.924Z,100065.10
2018-01-27T13:12:32.763Z,100061.63
2018-01-27T13:15:01.094Z,100059.14
2018-01-27T13:17:28.931Z,100060.03
2018-01-27T13:19:56.780Z,100060.89
2018-01-27T13:22:24.727Z,100059.68
2018-01-27T13:24:52.581Z,100061.30
2018-01-27T13:27:20.449Z,100059.23
2018-01-27T13:29:48.347Z,100062.12
2018-01-27T13:32:16.232Z,100071.09
2018-01-27T13:34:44.160Z,100064.96
2018-01-27T13:37:12.098Z,100068.91
2018-01-27T13:39:39.958Z,100060.53
2018-01-27T13:42:07.823Z,100068.25
2018-01-27T13:44:35.743Z,100065.38
2018-01-27T13:47:03.590Z,100066.86
2018-01-27T13:49:31.434Z,100070.69
2018-01-27T13:51:59.550Z,100073.59
2018-01-27T13:54:27.414Z,100065.47
2018-01-27T13:56:55.276Z,100070.81
2018-01-27T13:59:23.362Z,100064.50
2018-01-27T14:01:51.214Z,100068.53
2018-01-27T14:04:19.118Z,100072.80
2018-01-27T14:06:47.024Z,100068.09
2018-01-27T14:09:14.879Z,100068.86
2018-01-27T14:11:42.754Z,100076.00
2018-01-27T14:14:10.677Z,100083.20
2018-01-27T14:16:38.542Z,100081.81
2018-01-27T14:19:06.416Z,100081.89
2018-01-27T14:21:34.651Z,100073.17
2018-01-27T14:24:02.514Z,100077.05
2018-01-27T14:26:30.403Z,100078.82
2018-01-27T14:28:58.316Z,100080.55
2018-01-27T14:31:26.165Z,100087.05
2018-01-27T14:33:54.027Z,100078.62
2018-01-27T14:36:33.838Z,100083.45
2018-01-27T14:39:01.714Z,100090.06
2018-01-27T14:41:29.923Z,100087.65
2018-01-27T14:43:57.843Z,100092.45
2018-01-27T14:46:25.716Z,100094.81
2018-01-27T14:48:53.595Z,100096.11
2018-01-27T14:51:21.588Z,100088.30
2018-01-27T14:53:49.466Z,100094.01
2018-01-27T14:56:18.133Z,100093.53
2018-01-27T14:58:46.267Z,100093.39
2018-01-27T15:01:14.172Z,100101.34
2018-01-27T15:03:42.015Z,100096.27
2018-01-27T15:06:09.907Z,100105.02
2018-01-27T15:08:37.762Z,100107.39
2018-01-27T15:11:05.641Z,100107.31
2018-01-27T15:13:33.578Z,100105.67
2018-01-27T15:16:01.451Z,100113.28
2018-01-27T15:18:29.346Z,100106.22
2018-01-27T15:20:57.296Z,100107.97
2018-01-27T15:23:26.062Z,100115.50
2018-01-27T15:25:53.906Z,100119.25
2018-01-27T15:28:21.807Z,100120.00
2018-01-27T15:30:49.703Z,100125.26
2018-01-27T15:33:17.596Z,100127.20
2018-01-27T15:35:45.502Z,100131.39
2018-01-27T15:38:13.435Z,100130.97
2018-01-27T15:40:41.266Z,100143.34
2018-01-27T15:43:09.182Z,100136.78
2018-01-27T15:45:37.119Z,100141.56
2018-01-27T15:48:04.994Z,100141.06
2018-01-27T15:50:32.990Z,100138.20
2018-01-27T15:53:00.845Z,100142.20
2018-01-27T15:55:28.909Z,100146.08
2018-01-27T15:57:56.836Z,100146.91
2018-01-27T16:00:24.734Z,100154.23
2018-01-27T16:02:52.720Z,100155.67
2018-01-27T16:05:21.554Z,100160.83
2018-01-27T16:07:49.421Z,100155.28
2018-01-27T16:10:17.291Z,100164.62
2018-01-27T16:12:45.223Z,100163.80
2018-01-27T16:15:13.087Z,100165.96
2018-01-27T16:17:40.934Z,100169.81
2018-01-27T16:20:09.162Z,100174.95
2018-01-27T16:22:37.037Z,100170.16
2018-01-27T16:25:04.940Z,100169.32
2018-01-27T16:27:32.839Z,100173.20
2018-01-27T16:30:00.773Z,100171.69
2018-01-27T16:32:28.647Z,100170.47
2018-01-27T16:34:56.548Z,100179.19
2018-01-27T16:37:24.430Z,100185.20
2018-01-27T16:39:52.393Z,100186.50
2018-01-27T16:42:20.315Z,100187.91
2018-01-27T16:44:48.275Z,100189.13
2018-01-27T16:47:16.200Z,100194.88
2018-01-27T16:49:44.171Z,100189.88
2018-01-27T16:52:12.034Z,100198.48
2018-01-27T16:54:39.914Z,100189.48
2018-01-27T16:57:07.838Z,100200.67
2018-01-27T16:59:35.681Z,100199.16
2018-01-27T17:02:03.541Z,100194.38
2018-01-27T17:04:32.058Z,100199.59
2018-01-27T17:06:59.907Z,100201.86
2018-01-27T17:09:27.758Z,100203.98
2018-01-27T17:11:55.716Z,100207.62
2018-01-27T17:14:23.559Z,100207.22
2018-01-27T17:16:51.407Z,100212.76
2018-01-27T17:19:19.315Z,100210.31
2018-01-27T17:21:47.167Z,100215.20
2018-01-27T17:24:15.005Z,100217.91
2018-01-27T17:26:42.903Z,100223.08
2018-01-27T17:29:10.746Z,100220.66
2018-01-27T17:31:38.678Z,100225.98
2018-01-27T17:34:06.834Z,100226.56
2018-01-27T17:36:34.678Z,100229.97
2018-01-27T17:39:02.531Z,100236.17
2018-01-27T17:41:30.693Z,100235.19
2018-01-27T17:43:58.564Z,100229.86
2018-01-27T17:46:26.428Z,100230.19
2018-01-27T17:48:54.323Z,100226.66
2018-01-27T17:51:22.199Z,100231.62
2018-01-27T17:53:51.046Z,100234.23
2018-01-27T17:56:19.007Z,100234.20
2018-01-27T17:58:46.856Z,100235.99
2018-01-27T18:01:14.771Z,100237.79
2018-01-27T18:03:42.659Z,100236.89
2018-01-27T18:06:11.258Z,100238.62
2018-01-27T18:08:39.115Z,100241.68
2018-01-27T18:11:07.118Z,100239.69
2018-01-27T18:13:34.946Z,100250.90
2018-01-27T18:16:02.802Z,100246.11
2018-01-27T18:18:30.758Z,100250.77
2018-01-27T18:20:58.618Z,100258.17
2018-01-27T18:23:26.456Z,100258.11
2018-01-27T18:25:54.470Z,100256.78
2018-01-27T18:28:22.339Z,100258.78
2018-01-27T18:30:50.172Z,100260.78
2018-01-27T18:33:18.100Z,100257.92
2018-01-27T18:35:45.930Z,100253.70
2018-01-27T18:38:13.766Z,100245.78
2018-01-27T18:40:41.987Z,100252.20
2018-01-27T18:43:09.882Z,100247.65
2018-01-27T18:45:37.730Z,100247.84
2018-01-27T18:48:05.662Z,100253.36
2018-01-27T18:50:33.503Z,100252.66
2018-01-27T18:53:01.347Z,100252.25
2018-01-27T18:55:29.305Z,100257.54
2018-01-27T18:57:57.204Z,100258.44
2018-01-27T19:00:25.082Z,100264.22
2018-01-27T19:02:52.967Z,100262.72
2018-01-27T19:05:20.828Z,100256.58
2018-01-27T19:07:48.861Z,100251.92
2018-01-27T19:10:16.791Z,100258.42
2018-01-27T19:12:44.655Z,100259.61
2018-01-27T19:15:12.514Z,100255.19
2018-01-27T19:17:41.196Z,100252.88
2018-01-27T19:20:09.059Z,100257.75
2018-01-27T19:22:36.907Z,100261.56
2018-01-27T19:25:04.798Z,100262.06
2018-01-27T19:27:32.648Z,100261.13
2018-01-27T19:30:00.543Z,100261.32
2018-01-27T19:32:28.436Z,100271.55
2018-01-27T19:34:56.295Z,100268.13
2018-01-27T19:37:24.164Z,100266.73
2018-01-27T19:39:52.088Z,100268.88
2018-01-27T19:42:19.983Z,100265.52
2018-01-27T19:44:47.831Z,100261.63
2018-01-27T19:47:16.035Z,100268.52
2018-01-27T19:49:43.949Z,100265.83
2018-01-27T19:52:11.809Z,100266.53
2018-01-27T19:54:40.008Z,100264.52
2018-01-27T19:57:07.871Z,100266.74
2018-01-27T19:59:35.743Z,100267.95
2018-01-27T20:02:03.666Z,100260.39
2018-01-27T20:04:31.551Z,100260.27
2018-01-27T20:06:59.420Z,100268.45
2018-01-27T20:09:27.406Z,100258.20
2018-01-27T20:11:55.250Z,100255.73
2018-01-27T20:14:23.127Z,100257.15
2018-01-27T20:16:51.055Z,100256.92
2018-01-27T20:19:18.927Z,100254.77
2018-01-27T20:21:46.798Z,100256.38
2018-01-27T20:24:14.706Z,100257.58
2018-01-27T20:26:42.563Z,100259.77
2018-01-27T20:29:10.439Z,100263.08
2018-01-27T20:31:38.626Z,100260.85
2018-01-27T20:34:06.502Z,100258.41
2018-01-27T20:36:34.416Z,100261.47
2018-01-27T20:39:02.330Z,100258.06
2018-01-27T20:41:30.256Z,100261.65
2018-01-27T20:43:58.090Z,100263.41
2018-01-27T20:46:26.006Z,100264.57
2018-01-27T20:48:53.923Z,100264.32
2018-01-27T20:51:21.818Z,100263.52
2018-01-27T20:53:49.814Z,100263.17
2018-01-27T20:56:17.723Z,100263.27
2018-01-27T20:58:46.272Z,100272.86
2018-01-27T21:01:14.223Z,100271.91
2018-01-27T21:03:42.102Z,100272.41
2018-01-27T21:06:09.982Z,100268.23
2018-01-27T21:08:37.890Z,100275.80
2018-01-27T21:11:07.249Z,100274.41
2018-01-27T21:13:35.097Z,100275.77
2018-01-27T21:16:03.079Z,100274.16
2018-01-27T21:18:30.947Z,100276.58
2018-01-27T21:20:58.812Z,100283.44
2018-01-27T21:23:26.764Z,100271.63
2018-01-27T21:25:54.686Z,100281.34
2018-01-27T21:28:22.748Z,100284.34
2018-01-27T21:30:50.691Z,100287.28
2018-01-27T21:33:18.652Z,100286.50
2018-01-27T21:35:46.503Z,100280.13
2018-01-27T21:38:14.647Z,100287.36
2018-01-27T21:40:42.538Z,100285.63
2018-01-27T21:43:10.391Z,100288.80
2018-01-27T21:45:38.703Z,100290.79
2018-01-27T21:48:06.567Z,100292.81
2018-01-27T21:50:34.417Z,100287.91
2018-01-27T21:53:02.667Z,100292.84
2018-01-27T21:55:30.531Z,100289.41
2018-01-27T21:57:58.406Z,100285.75
2018-01-27T22:00:26.326Z,100289.94
2018-01-27T22:02:54.178Z,100291.17
2018-01-27T22:05:22.022Z,100285.78
2018-01-27T22:07:49.924Z,100281.86
2018-01-27T22:10:17.778Z,100279.64
2018-01-27T22:12:45.744Z,100284.48
2018-01-27T22:15:13.678Z,100281.42
2018-01-27T22:17:41.527Z,100279.69
2018-01-27T22:20:09.377Z,100284.39
2018-01-27T22:22:37.326Z,100275.75
2018-01-27T22:25:05.190Z,100270.23
2018-01-27T22:27:33.025Z,100271.84
2018-01-27T22:30:01.144Z,100269.28
2018-01-27T22:32:29.018Z,100269.28
2018-01-27T22:34:56.892Z,100274.13
2018-01-27T22:37:24.774Z,100274.50
2018-01-27T22:39:52.623Z,100265.05
2018-01-27T22:42:20.486Z,100268.59
2018-01-27T22:44:48.414Z,100275.28
2018-01-27T22:47:16.285Z,100272.52
2018-01-27T22:49:44.169Z,100275.02
2018-01-27T22:52:12.095Z,100272.91
2018-01-27T22:54:39.995Z,100277.87
2018-01-27T22:57:07.870Z,100273.41
2018-01-27T22:59:35.806Z,100273.58
2018-01-27T23:02:03.665Z,100276.38
2018-01-27T23:04:31.519Z,100280.61
2018-01-27T23:06:59.626Z,100269.88
2018-01-27T23:09:27.484Z,100274.95
2018-01-27T23:11:55.335Z,100272.41
2018-01-27T23:14:24.315Z,100269.55
2018-01-27T23:16:52.174Z,100269.55
2018-01-27T23:19:20.049Z,100271.88
2018-01-27T23:21:48.466Z,100265.91
2018-01-27T23:24:16.363Z,100268.89
2018-01-27T23:26:44.231Z,100271.11
2018-01-27T23:29:12.148Z,100281.28
2018-01-27T23:31:40.035Z,100278.77
2018-01-27T23:34:07.914Z,100273.92
2018-01-27T23:36:35.816Z,100279.49
2018-01-27T23:39:03.763Z,100273.16
2018-01-27T23:41:31.664Z,100276.33
2018-01-27T23:43:59.823Z,100282.58
2018-01-27T23:46:27.693Z,100276.14
2018-01-27T23:48:55.544Z,100278.04
2018-01-27T23:51:24.430Z,100274.55
2018-01-27T23:53:52.283Z,100272.81
2018-01-27T23:56:20.118Z,100271.73
2018-01-27T23:58:48.087Z,100270.19
